Flight Track Log - Related Links

Times and Time Zones

All times are in EDT time to prevent confusion due to time zone crossing. See the SWA1017 flight status page for this flight to view local times or setup timezone preferences in your user account.

Time Position Orientation Groundspeed Altitude Reporting Facility
EDT Latitude Longitude Course Direction KTS MPH feet Rate Location/Type
Thu 03:00:08 PM 26.2375 -97.6589 North 155 178 500  Level Houston Center
Thu 03:01:03 PM 26.2792 -97.6556 North 157 181 2,400 1,795 Climbing Houston Center
Thu 03:02:05 PM 26.3442 -97.6450 North 228 262 4,000 2,033 Climbing Houston Center
Thu 03:03:04 PM 26.4225 -97.6364 North 302 348 6,500 3,292 Climbing Houston Center
Thu 03:03:58 PM 26.5033 -97.6256 North 323 372 10,200 3,118 Climbing Houston Center
Thu 03:05:11 PM 26.6131 -97.6094 North 350 403 13,100 3,022 Climbing Houston Center
Thu 03:06:13 PM 26.7211 -97.5958 North 365 420 17,000 3,048 Climbing Houston Center
Thu 03:07:15 PM 26.8242 -97.5831 North 375 432 19,400 2,565 Climbing Houston Center
Thu 03:08:17 PM 26.9422 -97.5694 North 395 455 22,300 2,256 Climbing Houston Center
Thu 03:09:20 PM 27.0564 -97.5544 North 408 470 24,100 1,797 Climbing Houston Center
Thu 03:11:24 PM 27.2742 -97.6456 340° North 424 488 27,900 2,161 Climbing Houston Center
Thu 03:12:26 PM 27.3764 -97.7097 331° Northwest 425 489 30,800 1,935 Climbing Houston Center
Thu 03:13:28 PM 27.4714 -97.7803 327° Northwest 414 476 31,900 532 Climbing Houston Center
Thu 03:14:30 PM 27.5869 -97.8650 327° Northwest 414 476 31,900 48 Level Houston Center
Thu 03:15:32 PM 27.6808 -97.9389 325° Northwest 414 476 32,000 48 Climbing Houston Center
Thu 03:16:34 PM 27.7697 -98.0189 321° Northwest 413 475 32,000 -48 Level Houston Center
Thu 03:17:37 PM 27.8847 -98.0514 346° North 432 497 31,900  Descending Houston Center
Thu 03:18:39 PM 28.0014 -98.0769 349° North 429 494 32,000 48 Climbing Houston Center
Thu 03:19:41 PM 28.1400 -98.1097 348° North 426 490 32,000  Level Houston Center
Thu 03:20:43 PM 28.2561 -98.1356 349° North 426 490 32,000  Level Houston Center
Thu 03:21:45 PM 28.3708 -98.1633 348° North 423 487 32,000  Level Houston Center
Thu 03:22:47 PM 28.4847 -98.1892 349° North 424 488 32,000  Level Houston Center
Thu 03:23:49 PM 28.6003 -98.2161 348° North 423 487 32,000  Level Houston Center
Thu 03:24:51 PM 28.7450 -98.2506 348° North 426 490 32,000  Level Houston Center
Thu 03:25:53 PM 28.8603 -98.2769 349° North 422 486 32,000  Level Houston Center
Thu 03:26:56 PM 28.9767 -98.3047 348° North 425 489 32,000 -48 Level Houston Center
Thu 03:27:58 PM 29.1006 -98.3336 348° North 423 487 31,900 -1,355 Descending Houston Center
Thu 03:29:00 PM 29.2150 -98.3608 348° North 420 483 29,200 -2,565 Descending Houston Center
Thu 03:30:02 PM 29.3389 -98.3892 349° North 421 484 26,600 -1,984 Descending Houston Center
Thu 03:31:04 PM 29.4500 -98.4150 349° North 411 473 25,100 -1,258 Descending Houston Center
Thu 03:32:06 PM 29.5633 -98.4419 348° North 408 470 24,000 -1,065 Descending Houston Center
Thu 03:33:08 PM 29.6819 -98.4350 North 403 464 22,900 -1,161 Descending Houston Center
Thu 03:34:10 PM 29.7756 -98.3672 32° Northeast 396 456 21,600 -1,584 Descending Houston Center
Thu 03:35:13 PM 29.8664 -98.3017 32° Northeast 385 443 19,600 -1,776 Descending Houston Center
Thu 03:36:15 PM 29.9594 -98.2350 32° Northeast 368 423 17,900 -1,935 Descending Houston Center
Thu 03:37:17 PM 30.0439 -98.1733 32° Northeast 361 415 15,600 -1,887 Descending Houston Center
Thu 03:38:19 PM 30.1253 -98.0967 39° Northeast 355 409 14,000 -823 Descending Houston Center
Thu 03:39:21 PM 30.1694 -97.9964 63° Northeast 350 403 13,900 -532 Descending Houston Center
Thu 03:40:23 PM 30.2150 -97.8978 62° Northeast 319 367 12,900 -1,403 Descending Houston Center
Thu 03:41:25 PM 30.2264 -97.8119 81° East 319 367 11,000 -2,323 Descending Houston Center
Thu 03:42:27 PM 30.1467 -97.7758 159° South 279 321 8,100 -3,145 Descending Houston Center
Thu 03:43:29 PM 30.0742 -97.7667 174° South 261 300 4,500 -2,448 Descending Houston Center
Thu 03:44:32 PM 30.0286 -97.7353 149° Southeast 228 262 3,000 -866 Descending Houston Center
Thu 03:46:00 PM 30.1757 -97.6773 19° North  Level Estimated
Thu 03:46:36 PM 30.1144 -97.6789 19° North 189 217 1,800  Level Houston Center
Thu 03:47:38 PM 30.1500 -97.6722 North 162 186 1,200 -581 Descending Houston Center
Thu 03:49:00 PM 30.1945 -97.6699 North  Level Estimated
Thu 03:56:00 PM 30.1945 -97.6699 157° South  Level Estimated

Login

Don't have an account? Register now (free) for customized features, flight alerts, and more!